Last 7 Days

Abernathy 3 (AB3)

Hourly Data | America/Los_Angeles
as of 10/23/19 8:55 AM PDT
Date & Time Temp (°F) RH (%) Dew Pt (°F) Wind Spd (mph) Wind Dir (°) Wind Gust (mph) Latest Rain (In) Daily Rain (In) Daily Min Temp (°F) Daily Max Temp (°F)
10/23/19 - 0800 47.9 87 44.2 1.2 NW | 324 3.8 0.00 0.00 46.8 53.0
10/23/19 - 0700 48.6 85 44.4 0.4 NW | 323 1.7 0.00 0.00 47.2 53.0
10/23/19 - 0600 50.4 86 46.4 1.3 NNW | 336 4.4 0.00 0.00 48.6 53.0
10/23/19 - 0500 49.1 84 44.4 1.5 NNW | 332 5.4 0.00 0.00 48.6 53.0
10/23/19 - 0400 50.5 76 43.2 1.1 NNW | 332 4.4 0.00 0.00 49.3 53.0
10/23/19 - 0300 51.7 73 43.5 1.2 NNW | 333 5.1 0.00 0.00 51.1 53.0
10/23/19 - 0200 52.4 73 44.0 0.9 N | 349 4.1 0.00 0.00 51.6 53.0
10/23/19 - 0100 53.0 73 44.5 1.0 NNW | 342 3.8 0.00 0.00 44.7 87.5
10/23/19 - 0000 55.5 66 44.3 1.0 NW | 325 3.4 0.00 0.00 44.7 87.5
10/22/19 - 2300 59.8 58 45.0 1.4 W | 260 4.8 0.00 0.00 44.7 87.5
10/22/19 - 2200 61.6 57 46.3 3.1 NW | 306 5.8 0.00 0.00 44.7 87.5
10/22/19 - 2100 61.7 58 46.9 2.0 WNW | 298 4.1 0.00 0.00 44.7 87.5
10/22/19 - 2000 62.9 61 49.2 1.6 NW | 315 3.4 0.00 0.00 44.7 87.5
10/22/19 - 1900 71.7 47 49.9 1.4 N | 360 3.4 0.00 0.00 44.7 87.5
10/22/19 - 1800 81.8 29 46.5 2.6 S | 173 6.4 0.00 0.00 44.7 87.5
10/22/19 - 1700 84.3 28 47.4 5.3 S | 185 9.1 0.00 0.00 44.7 87.5
10/22/19 - 1600 86.4 26 47.9 4.8 SSE | 162 8.4 0.00 0.00 44.7 87.5
10/22/19 - 1500 86.1 26 46.8 2.8 SSE | 166 8.4 0.00 0.00 44.7 87.4
10/22/19 - 1400 82.4 28 45.9 3.2 S | 176 7.4 0.00 0.00 44.7 84.4
10/22/19 - 1300 79.3 30 45.4 2.5 SE | 139 6.8 0.00 0.00 44.7 80.6
10/22/19 - 1200 75.9 34 45.5 2.5 ESE | 105 6.1 0.00 0.00 44.7 77.8
10/22/19 - 1100 73.6 37 45.9 2.8 ESE | 112 5.4 0.00 0.00 44.7 74.9
10/22/19 - 1000 67.4 45 45.3 1.2 SE | 142 3.8 0.00 0.00 44.7 71.9
10/22/19 - 0900 53.7 69 43.6 0.5 NW | 321 2.4 0.00 0.00 44.7 60.7
10/22/19 - 0800 45.2 83 40.3 0.8 WNW | 296 2.7 0.00 0.00 44.7 51.1
10/22/19 - 0700 46.0 80 40.3 1.1 NW | 326 2.7 0.00 0.00 45.1 51.1
10/22/19 - 0600 46.4 78 40.1 1.2 NNW | 328 3.4 0.00 0.00 45.6 51.1
10/22/19 - 0500 47.7 75 40.2 1.8 NNW | 329 3.8 0.00 0.00 47.2 51.1
10/22/19 - 0400 48.4 75 40.8 1.3 NNW | 346 4.8 0.00 0.00 47.4 51.1
10/22/19 - 0300 48.9 76 41.5 1.9 NNW | 331 4.4 0.00 0.00 48.4 51.1
10/22/19 - 0200 49.6 77 42.6 1.3 NNW | 338 3.8 0.00 0.00 48.5 51.1
10/22/19 - 0100 53.8 68 43.5 1.3 NE | 36 4.4 0.00 0.00 47.6 89.2
10/22/19 - 0000 57.8 51 39.9 1.2 N | 8 3.4 0.00 0.00 47.6 89.2
10/21/19 - 2300 64.5 36 36.8 1.3 SSW | 196 5.8 0.00 0.00 47.6 89.2
10/21/19 - 2200 61.4 41 37.2 1.4 SSW | 208 5.4 0.00 0.00 47.6 89.2
10/21/19 - 2100 63.2 39 37.5 1.0 W | 268 4.1 0.00 0.00 47.6 89.2
10/21/19 - 2000 72.9 27 37.3 2.7 N | 6 5.4 0.00 0.00 47.6 89.2
10/21/19 - 1900 78.3 21 35.4 2.3 NE | 45 7.4 0.00 0.00 47.6 89.2
10/21/19 - 1800 84.8 16 34.3 4.3 NW | 309 14.2 0.00 0.00 47.6 89.2
10/21/19 - 1700 87.4 17 36.7 7.6 NW | 317 14.2 0.00 0.00 47.6 89.2
10/21/19 - 1600 88.5 18 39.9 6.9 NW | 312 13.8 0.00 0.00 47.6 89.2
10/21/19 - 1500 88.4 19 41.2 5.2 NW | 326 17.8 0.00 0.00 47.6 89.2
10/21/19 - 1400 85.0 25 44.9 3.8 SE | 124 7.8 0.00 0.00 47.6 87.5
10/21/19 - 1300 80.2 34 49.0 4.9 SE | 129 10.8 0.00 0.00 47.6 82.2
10/21/19 - 1200 78.2 37 50.2 4.6 ESE | 118 8.1 0.00 0.00 47.6 78.7
10/21/19 - 1100 74.1 44 50.4 3.8 SSE | 147 7.1 0.00 0.00 47.6 77.4
10/21/19 - 1000 67.3 54 50.1 2.0 SSE | 152 4.4 0.00 0.00 47.6 70.9
10/21/19 - 0900 56.6 72 47.5 1.0 SSW | 192 3.4 0.00 0.00 47.6 63.3
10/21/19 - 0800 48.4 84 43.7 1.1 WSW | 239 3.8 0.00 0.00 47.6 56.4
10/21/19 - 0700 49.0 85 44.7 1.1 NW | 311 3.1 0.00 0.00 48.3 56.4
10/21/19 - 0600 52.5 76 45.2 1.0 SW | 220 3.8 0.00 0.00 50.9 56.4
10/21/19 - 0500 54.8 72 45.7 2.1 W | 262 5.1 0.00 0.00 50.9 56.4
10/21/19 - 0400 52.9 73 44.6 1.2 WSW | 249 3.4 0.00 0.00 50.9 53.4
10/21/19 - 0300 51.9 72 43.4 1.1 SW | 232 3.4 0.00 0.00 50.9 53.4
10/21/19 - 0200 52.0 73 43.5 1.2 W | 260 4.1 0.00 0.00 51.5 52.2
10/21/19 - 0100 51.4 75 43.7 1.0 NW | 315 3.1 0.00 0.00 46.5 80.8
10/21/19 - 0000 55.3 64 43.5 1.4 WSW | 239 3.8 0.00 0.00 46.5 80.8
10/20/19 - 2300 57.1 60 43.2 2.7 WSW | 257 5.4 0.00 0.00 46.5 80.8
10/20/19 - 2200 57.3 59 43.3 2.1 W | 279 4.1 0.00 0.00 46.5 80.8
10/20/19 - 2100 59.0 56 43.6 1.0 W | 260 3.4 0.00 0.00 46.5 80.8
10/20/19 - 2000 65.1 47 44.3 2.6 WSW | 242 8.1 0.00 0.00 46.5 80.8
10/20/19 - 1900 69.3 39 43.0 5.9 SSW | 209 10.8 0.00 0.00 46.5 80.8
10/20/19 - 1800 73.3 34 42.9 9.3 SW | 219 17.5 0.00 0.00 46.5 80.8
10/20/19 - 1700 76.7 28 41.4 11.3 SW | 228 17.5 0.00 0.00 46.5 80.8
10/20/19 - 1600 80.1 25 41.1 6.9 WSW | 257 11.5 0.00 0.00 46.5 80.7
10/20/19 - 1500 78.1 27 41.6 5.8 SW | 234 12.5 0.00 0.00 46.5 79.9
10/20/19 - 1400 75.1 32 43.3 5.3 SSE | 164 10.5 0.00 0.00 46.5 76.7
10/20/19 - 1300 72.8 36 44.7 4.3 SE | 139 9.5 0.00 0.00 46.5 74.0
10/20/19 - 1200 70.8 40 45.4 4.6 SSE | 150 8.8 0.00 0.00 46.5 71.8
10/20/19 - 1100 67.6 48 47.0 3.1 S | 172 6.1 0.00 0.00 46.5 69.6
10/20/19 - 1000 62.0 64 49.6 2.7 S | 179 5.8 0.00 0.00 46.5 66.3
10/20/19 - 0900 52.7 91 50.1 0.8 NW | 326 4.1 0.00 0.00 46.5 58.2
10/20/19 - 0800 47.1 94 45.5 0.6 SW | 225 2.7 0.00 0.00 46.5 58.2
10/20/19 - 0700 47.6 93 45.7 0.7 W | 265 3.1 0.00 0.00 47.1 58.2
10/20/19 - 0600 49.1 91 46.5 1.0 SW | 219 3.8 0.00 0.00 47.8 58.2
10/20/19 - 0500 53.5 83 48.4 1.2 WSW | 257 4.8 0.00 0.00 50.2 58.2
10/20/19 - 0400 57.1 79 50.8 3.1 NNW | 329 6.1 0.00 0.00 54.0 58.2
10/20/19 - 0300 57.6 79 51.2 4.0 NNW | 329 7.4 0.00 0.00 54.0 58.2
10/20/19 - 0200 54.8 87 51.0 3.4 NW | 308 6.4 0.00 0.00 54.0 56.8
10/20/19 - 0100 53.8 92 51.4 2.0 NW | 311 3.8 0.00 0.00 46.9 73.2
10/20/19 - 0000 52.8 91 50.2 1.5 WSW | 254 3.8 0.00 0.00 46.9 73.2
10/19/19 - 2300 53.8 90 51.0 1.1 W | 272 3.1 0.00 0.00 46.9 73.2
10/19/19 - 2200 55.5 89 52.4 1.0 WSW | 246 3.4 0.00 0.00 46.9 73.2
10/19/19 - 2100 59.6 83 54.4 2.8 SW | 231 7.8 0.00 0.00 46.9 73.2
10/19/19 - 2000 62.3 79 55.6 5.3 SW | 218 8.4 0.00 0.00 46.9 73.2
10/19/19 - 1900 64.7 74 56.2 7.3 SW | 214 12.8 0.00 0.00 46.9 73.2
10/19/19 - 1800 67.5 68 56.8 10.2 SW | 215 17.8 0.00 0.00 46.9 73.2
10/19/19 - 1700 70.0 64 57.2 11.6 SSW | 209 17.5 0.00 0.00 46.9 73.2
10/19/19 - 1600 71.2 62 57.4 9.8 SW | 223 17.8 0.00 0.00 46.9 73.2
10/19/19 - 1500 71.3 60 56.7 11.8 SW | 230 20.5 0.00 0.00 46.9 73.2
10/19/19 - 1400 71.9 56 55.4 10.8 SW | 230 18.2 0.00 0.00 46.9 73.2
10/19/19 - 1300 70.1 57 54.3 9.9 SW | 231 17.2 0.00 0.00 46.9 72.3
10/19/19 - 1200 67.6 57 51.7 7.9 WSW | 244 16.8 0.00 0.00 46.9 68.3
10/19/19 - 1100 65.7 51 47.0 4.8 WSW | 243 12.8 0.00 0.00 46.9 67.2
10/19/19 - 1000 60.7 55 44.3 3.4 SSE | 154 7.4 0.00 0.00 46.9 64.7
10/19/19 - 0900 54.4 67 43.7 3.0 SSE | 148 6.8 0.00 0.00 46.9 57.6
10/19/19 - 0800 52.0 73 43.6 2.4 SE | 132 8.1 0.00 0.00 46.9 54.9
10/19/19 - 0700 53.2 71 44.0 4.8 SSW | 204 12.5 0.00 0.00 46.9 54.9
10/19/19 - 0600 54.3 70 44.7 4.4 SW | 219 11.8 0.00 0.00 46.9 54.8
10/19/19 - 0500 50.8 79 44.6 4.2 WSW | 243 11.8 0.00 0.00 46.9 54.8
10/19/19 - 0400 52.0 78 45.5 2.6 WNW | 282 9.5 0.00 0.00 48.3 54.6
10/19/19 - 0300 53.0 78 46.2 4.6 SW | 218 10.8 0.00 0.00 50.9 54.0
10/19/19 - 0200 53.7 79 47.2 4.5 SW | 228 10.5 0.00 0.00 53.1 54.0
10/19/19 - 0100 52.5 81 46.8 2.4 W | 272 7.4 0.00 0.00 45.2 72.5
10/19/19 - 0000 54.5 78 48.0 3.2 SW | 228 7.8 0.00 0.00 45.2 72.5
10/18/19 - 2300 55.2 78 48.4 4.9 SSW | 202 8.4 0.00 0.00 45.2 72.5
10/18/19 - 2200 55.1 76 47.7 2.2 SW | 226 6.1 0.00 0.00 45.2 72.5
10/18/19 - 2100 57.4 71 48.0 5.1 SW | 215 9.1 0.00 0.00 45.2 72.5
10/18/19 - 2000 59.3 67 48.3 3.3 SSW | 209 6.1 0.00 0.00 45.2 72.5
10/18/19 - 1900 62.7 59 48.4 6.8 SW | 229 14.8 0.00 0.00 45.2 72.5
10/18/19 - 1800 66.4 49 46.8 9.8 SW | 226 15.8 0.00 0.00 45.2 72.5
10/18/19 - 1700 68.7 44 45.9 11.5 SW | 229 19.8 0.00 0.00 45.2 72.5
10/18/19 - 1600 71.0 38 44.2 11.8 SW | 232 19.5 0.00 0.00 45.2 72.5
10/18/19 - 1500 71.4 43 47.8 11.1 SW | 223 19.5 0.00 0.00 45.2 72.5
10/18/19 - 1400 71.1 43 47.1 9.6 SW | 234 17.5 0.00 0.00 45.2 72.2
10/18/19 - 1300 69.1 48 48.5 9.7 SW | 233 16.8 0.00 0.00 45.2 70.1
10/18/19 - 1200 67.8 53 49.9 7.7 W | 271 14.8 0.00 0.00 45.2 69.7
10/18/19 - 1100 64.5 54 47.3 9.0 SW | 217 14.2 0.00 0.00 45.2 65.5
10/18/19 - 1000 61.3 56 45.5 8.9 SW | 224 13.8 0.00 0.00 45.2 63.6
10/18/19 - 0900 53.1 68 42.7 1.5 WNW | 292 5.4 0.00 0.00 45.2 58.9
10/18/19 - 0800 49.5 74 41.5 2.3 WNW | 298 8.1 0.00 0.00 45.2 58.8
10/18/19 - 0700 48.1 76 40.8 2.4 WNW | 295 6.8 0.00 0.00 45.2 58.8
10/18/19 - 0600 46.5 78 40.2 1.2 W | 271 4.8 0.00 0.00 45.2 58.8
10/18/19 - 0500 47.6 76 40.6 1.5 NW | 311 5.1 0.00 0.00 45.7 58.8
10/18/19 - 0400 50.8 68 40.6 1.2 WSW | 242 4.4 0.00 0.00 48.5 58.8
10/18/19 - 0300 54.4 61 41.1 2.5 WNW | 299 7.4 0.00 0.00 52.2 58.8
10/18/19 - 0200 56.7 56 41.4 4.2 NW | 305 10.1 0.00 0.00 55.5 58.8
10/18/19 - 0100 58.4 54 41.7 4.7 NW | 312 9.5 0.00 0.00 50.8 76.8
10/18/19 - 0000 59.3 52 41.6 4.3 NW | 308 10.8 0.00 0.00 50.8 76.8
10/17/19 - 2300 60.6 49 41.1 5.0 NW | 322 10.5 0.00 0.00 50.8 76.8
10/17/19 - 2200 62.0 44 40.0 5.9 NNW | 328 11.8 0.00 0.00 50.8 76.8
10/17/19 - 2100 61.4 44 39.5 3.9 NNW | 330 9.5 0.00 0.00 50.8 76.8
10/17/19 - 2000 62.2 44 40.1 3.2 WNW | 301 8.1 0.00 0.00 50.8 76.8
10/17/19 - 1900 64.0 50 45.0 5.3 WSW | 241 11.1 0.00 0.00 50.8 76.8
10/17/19 - 1800 68.2 44 45.7 10.3 WSW | 247 18.2 0.00 0.00 50.8 76.8
10/17/19 - 1700 73.6 30 39.9 8.4 W | 279 18.5 0.00 0.00 50.8 76.8
10/17/19 - 1600 75.6 26 38.4 9.2 W | 278 18.5 0.00 0.00 50.8 76.8
10/17/19 - 1500 76.0 24 36.9 7.2 WNW | 285 17.8 0.00 0.00 50.8 76.8
10/17/19 - 1400 74.3 26 37.4 6.5 W | 274 15.5 0.00 0.00 50.8 75.8
10/17/19 - 1300 71.1 31 39.3 7.5 WSW | 245 13.5 0.00 0.00 50.8 72.6
10/17/19 - 1200 68.8 38 41.9 6.7 WNW | 282 13.8 0.00 0.00 50.8 69.7
10/17/19 - 1100 67.0 42 43.1 6.9 WNW | 299 13.5 0.00 0.00 50.8 68.5
10/17/19 - 1000 62.8 55 46.1 4.4 W | 277 12.5 0.00 0.00 50.8 65.2
10/17/19 - 0900 55.6 82 50.0 1.6 NNW | 337 6.8 0.00 0.00 50.8 59.4
10/17/19 - 0800 52.0 91 49.4 3.0 SW | 235 7.4 0.00 0.00 50.8 59.4
10/17/19 - 0700 55.1 88 51.8 2.5 SSE | 166 9.8 0.00 0.00 53.6 59.4
10/17/19 - 0600 56.5 91 53.9 6.9 SW | 227 11.8 0.00 0.00 56.2 59.4
10/17/19 - 0500 56.8 91 54.1 5.3 SSE | 167 11.5 0.00 0.00 56.4 59.4
10/17/19 - 0400 56.9 91 54.3 4.9 WSW | 244 12.1 0.00 0.00 56.5 59.4
10/17/19 - 0300 57.7 90 54.7 7.4 WSW | 240 14.8 0.00 0.00 57.3 59.4
10/17/19 - 0200 58.9 88 55.5 8.2 SW | 234 17.2 0.00 0.00 58.4 59.4
10/17/19 - 0100 60.0 86 55.7 11.2 SW | 234 19.8 0.00 0.00 39.3 74.4
10/17/19 - 0000 61.4 77 54.0 8.7 SW | 236 15.8 0.00 0.00 39.3 74.4
10/16/19 - 2300 62.3 69 51.9 7.8 WSW | 254 17.5 0.00 0.00 39.3 74.4
10/16/19 - 2200 59.9 70 49.9 6.5 SW | 217 13.8 0.00 0.00 39.3 74.4
10/16/19 - 2100 60.1 68 49.3 10.4 SW | 221 16.5 0.00 0.00 39.3 74.4
10/16/19 - 2000 60.9 65 49.0 8.1 SSW | 206 17.5 0.00 0.00 39.3 74.4
10/16/19 - 1900 62.4 60 48.3 7.0 SW | 219 14.5 0.00 0.00 39.3 74.4
10/16/19 - 1800 65.0 51 46.6 8.8 WSW | 237 16.2 0.00 0.00 39.3 74.4
10/16/19 - 1700 68.6 48 48.1 12.0 SW | 231 19.5 0.00 0.00 39.3 74.4
10/16/19 - 1600 71.1 40 45.9 7.7 SSW | 205 15.5 0.00 0.00 39.3 74.4
10/16/19 - 1500 73.6 29 38.5 6.9 SW | 215 14.8 0.00 0.00 39.3 74.4
10/16/19 - 1400 71.1 36 42.9 5.8 S | 189 10.1 0.00 0.00 39.3 73.4
10/16/19 - 1300 68.6 39 42.6 3.7 SSE | 166 8.1 0.00 0.00 39.3 70.7
10/16/19 - 1200 66.5 42 42.8 2.1 SSE | 159 7.8 0.00 0.00 39.3 68.0
10/16/19 - 1100 61.6 54 44.9 1.0 S | 182 4.1 0.00 0.00 39.3 63.9
10/16/19 - 1000 57.8 59 43.4 1.4 S | 170 4.1 0.00 0.00 39.3 59.2
10/16/19 - 0900 48.6 69 38.9 1.3 NW | 322 3.1 0.00 0.00 39.3 54.8
Max 88.5 94 57.4 12.0 - 20.5 0.00 0.00 58.4 89.2
Avg 62.1 60 45.6 4.3 - 9.2 0.00 - - -
Min 45.2 16 34.3 0.4 - 1.7 0.00 0.00 39.3 51.1
Total - - - - - - 0.00 - - -
Tip: Bookmark this page for easy future reference